Terminal Aerodrome Forecast
Issued by NWS Mobile, AL

Home | Current Version | Previous Version | Text Only | Print | Product List | Glossary On
Versions: 1 2 3 4 5 6 7 8 9 10 11 12 13 14 15 16 17 18 19 20 21 22 23 24 25
000
FTUS44 KMOB 271100
TAFPNS
TAF
KPNS 271133Z 2712/2812 07006KT P6SM -RA BKN060 OVC100
     FM271500 10008KT P6SM -RA OVC050
     FM272100 13009KT 6SM SHRA BR OVC035
     FM280000 12008KT 4SM -SHRA BR OVC020=

USA.gov is the U.S. government's official web portal to all federal, state and local government web resources and services.